createdAt,value
2018-11-27T00:00:29.649Z,5.59
2018-11-27T00:01:29.614Z,5.56
2018-11-27T00:02:29.738Z,5.56
2018-11-27T00:03:29.633Z,5.59
2018-11-27T00:04:30.465Z,5.56
2018-11-27T00:05:29.818Z,5.56
2018-11-27T00:06:29.973Z,5.6
2018-11-27T00:07:29.774Z,5.62
2018-11-27T00:08:29.579Z,5.56
2018-11-27T00:09:29.722Z,5.45
2018-11-27T00:10:29.598Z,5.42
2018-11-27T00:11:29.538Z,5.42
2018-11-27T00:12:29.588Z,5.43
2018-11-27T00:13:29.681Z,5.47
2018-11-27T00:14:29.670Z,5.46
2018-11-27T00:15:29.581Z,5.47
2018-11-27T00:16:29.840Z,5.45
2018-11-27T00:17:29.625Z,5.42
2018-11-27T00:18:29.575Z,5.39
2018-11-27T00:19:29.622Z,5.38
2018-11-27T00:20:29.564Z,5.39
2018-11-27T00:21:29.538Z,5.43
2018-11-27T00:22:30.395Z,5.29
2018-11-27T00:23:29.645Z,5.3
2018-11-27T00:24:30.002Z,5.29
2018-11-27T00:25:29.768Z,5.32
2018-11-27T00:26:29.666Z,5.33
2018-11-27T00:27:29.715Z,5.33
2018-11-27T00:28:29.671Z,5.38
2018-11-27T00:29:29.753Z,5.4
2018-11-27T00:30:29.563Z,5.42
2018-11-27T00:31:29.599Z,5.45
2018-11-27T00:32:29.625Z,5.46
2018-11-27T00:33:29.550Z,5.39
2018-11-27T00:34:29.560Z,5.43
2018-11-27T00:35:29.917Z,5.4
2018-11-27T00:36:29.701Z,5.42
2018-11-27T00:37:29.683Z,5.43
2018-11-27T00:38:29.587Z,5.42
2018-11-27T00:39:29.551Z,5.4
2018-11-27T00:40:29.629Z,5.4
2018-11-27T00:41:29.582Z,5.39
2018-11-27T00:42:29.605Z,5.3
2018-11-27T00:43:29.552Z,5.35
2018-11-27T00:44:29.600Z,5.38
2018-11-27T00:45:29.528Z,5.33
2018-11-27T00:46:29.643Z,5.4
2018-11-27T00:47:29.700Z,5.42
2018-11-27T00:48:29.964Z,5.36
2018-11-27T00:49:29.649Z,5.32
2018-11-27T00:50:29.717Z,5.36
2018-11-27T00:51:29.529Z,5.38
2018-11-27T00:52:29.515Z,5.35
2018-11-27T00:53:29.518Z,5.32
2018-11-27T00:54:29.502Z,5.35
2018-11-27T00:55:29.589Z,5.33
2018-11-27T00:56:29.484Z,5.36
2018-11-27T00:57:29.528Z,5.26
2018-11-27T00:58:29.566Z,5.3
2018-11-27T00:59:29.468Z,5.33
2018-11-27T01:00:29.552Z,5.33
2018-11-27T01:01:29.487Z,5.38
2018-11-27T01:02:29.560Z,5.4
2018-11-27T01:03:29.513Z,5.42
2018-11-27T01:04:29.688Z,5.39
2018-11-27T01:05:29.527Z,5.38
2018-11-27T01:06:29.517Z,5.4
2018-11-27T01:07:29.539Z,5.39
2018-11-27T01:08:29.583Z,5.3
2018-11-27T01:09:29.778Z,5.25
2018-11-27T01:10:29.705Z,5.22
2018-11-27T01:11:29.509Z,5.22
2018-11-27T01:12:29.704Z,5.11
2018-11-27T01:13:29.498Z,5.1
2018-11-27T01:14:29.586Z,5.15
2018-11-27T01:15:29.471Z,5.1
2018-11-27T01:16:29.489Z,5.14
2018-11-27T01:17:29.533Z,5.14
2018-11-27T01:18:29.584Z,5.11
2018-11-27T01:19:29.569Z,5.16
2018-11-27T01:20:29.653Z,5.21
2018-11-27T01:21:29.559Z,5.22
2018-11-27T01:22:30.293Z,5.23
2018-11-27T01:23:29.750Z,5.26
2018-11-27T01:24:29.513Z,5.25
2018-11-27T01:25:29.564Z,5.25
2018-11-27T01:26:29.647Z,5.3
2018-11-27T01:27:29.489Z,5.3
2018-11-27T01:28:29.584Z,5.28
2018-11-27T01:29:29.723Z,5.21
2018-11-27T01:30:29.840Z,5.19
2018-11-27T01:31:29.540Z,5.16
2018-11-27T01:32:29.501Z,5.15
2018-11-27T01:33:29.657Z,5.15
2018-11-27T01:34:29.509Z,5.16
2018-11-27T01:35:29.568Z,5.15
2018-11-27T01:36:29.439Z,5.16
2018-11-27T01:37:29.530Z,5.18
2018-11-27T01:38:29.560Z,5.21
2018-11-27T01:39:29.570Z,5.16
2018-11-27T01:40:29.491Z,5.15
2018-11-27T01:41:29.501Z,5.14
2018-11-27T01:42:29.608Z,5.11
2018-11-27T01:43:29.429Z,5.08
2018-11-27T01:44:29.661Z,5.04
2018-11-27T01:45:29.742Z,5
2018-11-27T01:46:29.652Z,4.98
2018-11-27T01:47:29.513Z,5.07
2018-11-27T01:48:29.491Z,5.1
2018-11-27T01:49:29.397Z,5
2018-11-27T01:50:29.644Z,4.98
2018-11-27T01:51:29.544Z,5.02
2018-11-27T01:52:29.608Z,5.04
2018-11-27T01:53:29.391Z,5.1
2018-11-27T01:54:29.434Z,5.11
2018-11-27T01:55:29.574Z,5.11
2018-11-27T01:56:29.453Z,5.01
2018-11-27T01:57:29.550Z,5
2018-11-27T01:58:29.444Z,4.88
2018-11-27T01:59:29.418Z,4.87
2018-11-27T02:00:29.459Z,4.88
2018-11-27T02:01:29.392Z,4.91
2018-11-27T02:02:29.442Z,4.95
2018-11-27T02:03:29.603Z,4.97
2018-11-27T02:04:29.428Z,4.97
2018-11-27T02:05:29.521Z,4.95
2018-11-27T02:06:29.529Z,5
2018-11-27T02:07:29.483Z,5.04
2018-11-27T02:08:29.485Z,5.02
2018-11-27T02:09:29.529Z,5.05
2018-11-27T02:10:29.448Z,5.05
2018-11-27T02:11:29.835Z,5.04
2018-11-27T02:12:29.537Z,5.04
2018-11-27T02:13:30.002Z,5.02
2018-11-27T02:14:29.601Z,5.01
2018-11-27T02:15:30.156Z,5.05
2018-11-27T02:16:29.405Z,4.98
2018-11-27T02:17:29.552Z,4.91
2018-11-27T02:18:29.567Z,4.93
2018-11-27T02:19:29.411Z,4.88
2018-11-27T02:20:29.422Z,4.91
2018-11-27T02:21:29.395Z,4.94
2018-11-27T02:22:29.399Z,4.94
2018-11-27T02:23:29.427Z,4.91
2018-11-27T02:24:29.437Z,4.84
2018-11-27T02:25:29.423Z,4.79
2018-11-27T02:26:29.396Z,4.84
2018-11-27T02:27:29.421Z,4.88
2018-11-27T02:28:29.373Z,4.91
2018-11-27T02:29:29.462Z,4.93
2018-11-27T02:30:29.463Z,4.86
2018-11-27T02:31:29.442Z,4.84
2018-11-27T02:32:29.372Z,4.87
2018-11-27T02:33:29.368Z,4.87
2018-11-27T02:34:29.470Z,4.9
2018-11-27T02:35:29.678Z,4.9
2018-11-27T02:36:29.647Z,4.91
2018-11-27T02:37:29.387Z,4.94
2018-11-27T02:38:29.618Z,4.86
2018-11-27T02:39:29.520Z,4.84
2018-11-27T02:40:29.506Z,4.83
2018-11-27T02:41:29.491Z,4.83
2018-11-27T02:42:29.482Z,4.8
2018-11-27T02:43:29.742Z,4.83
2018-11-27T02:44:29.538Z,4.8
2018-11-27T02:45:29.442Z,4.79
2018-11-27T02:46:29.538Z,4.69
2018-11-27T02:47:29.753Z,4.66
2018-11-27T02:48:29.673Z,4.72
2018-11-27T02:49:29.367Z,4.69
2018-11-27T02:50:29.494Z,4.73
2018-11-27T02:51:29.382Z,4.7
2018-11-27T02:52:29.558Z,4.67
2018-11-27T02:53:29.572Z,4.63
2018-11-27T02:54:29.633Z,4.69
2018-11-27T02:55:29.538Z,4.65
2018-11-27T02:56:29.409Z,4.66
2018-11-27T02:57:29.372Z,4.69
2018-11-27T02:58:29.550Z,4.74
2018-11-27T02:59:29.423Z,4.74
2018-11-27T03:00:29.368Z,4.72
2018-11-27T03:01:29.364Z,4.77
2018-11-27T03:02:29.553Z,4.77
2018-11-27T03:03:29.533Z,4.72
2018-11-27T03:04:29.568Z,4.7
2018-11-27T03:05:29.358Z,4.72
2018-11-27T03:06:29.339Z,4.76
2018-11-27T03:07:29.603Z,4.74
2018-11-27T03:08:29.457Z,4.69
2018-11-27T03:09:29.385Z,4.72
2018-11-27T03:10:29.369Z,4.76
2018-11-27T03:11:29.515Z,4.73
2018-11-27T03:12:29.521Z,4.76
2018-11-27T03:13:29.413Z,4.8
2018-11-27T03:14:29.602Z,4.8
2018-11-27T03:15:29.518Z,4.79
2018-11-27T03:16:29.343Z,4.77
2018-11-27T03:17:29.378Z,4.72
2018-11-27T03:18:29.566Z,4.77
2018-11-27T03:19:29.365Z,4.72
2018-11-27T03:20:29.669Z,4.7
2018-11-27T03:21:29.600Z,4.77
2018-11-27T03:22:29.288Z,4.8
2018-11-27T03:23:29.384Z,4.8
2018-11-27T03:24:29.328Z,4.76
2018-11-27T03:25:29.508Z,4.81
2018-11-27T03:26:29.736Z,4.63
2018-11-27T03:27:29.460Z,4.66
2018-11-27T03:28:29.378Z,4.7
2018-11-27T03:29:29.782Z,4.53
2018-11-27T03:30:29.637Z,4.56
2018-11-27T03:31:29.556Z,4.52
2018-11-27T03:32:29.287Z,4.56
2018-11-27T03:33:29.571Z,4.6
2018-11-27T03:34:29.263Z,4.65
2018-11-27T03:35:29.444Z,4.69
2018-11-27T03:36:29.275Z,4.66
2018-11-27T03:37:29.287Z,4.69
2018-11-27T03:38:29.265Z,4.67
2018-11-27T03:39:29.640Z,4.6
2018-11-27T03:40:29.583Z,4.49
2018-11-27T03:41:29.470Z,4.49
2018-11-27T03:42:29.529Z,4.45
2018-11-27T03:43:29.424Z,4.49
2018-11-27T03:44:29.607Z,4.49
2018-11-27T03:45:29.504Z,4.52
2018-11-27T03:46:29.321Z,4.52
2018-11-27T03:47:29.321Z,4.48
2018-11-27T03:48:29.533Z,4.45
2018-11-27T03:49:29.300Z,4.4
2018-11-27T03:50:29.861Z,4.43
2018-11-27T03:51:29.472Z,4.42
2018-11-27T03:52:29.325Z,4.45
2018-11-27T03:53:29.320Z,4.46
2018-11-27T03:54:29.289Z,4.43
2018-11-27T03:55:29.291Z,4.43
2018-11-27T03:56:29.314Z,4.4
2018-11-27T03:57:29.387Z,4.43
2018-11-27T03:58:29.261Z,4.45
2018-11-27T03:59:29.305Z,4.45
2018-11-27T04:00:29.322Z,4.48
2018-11-27T04:01:29.341Z,4.52
2018-11-27T04:02:29.260Z,4.49
2018-11-27T04:03:29.459Z,4.53
2018-11-27T04:04:29.243Z,4.56
2018-11-27T04:05:29.451Z,4.59
2018-11-27T04:06:29.242Z,4.53
2018-11-27T04:07:29.238Z,4.55
2018-11-27T04:08:29.298Z,4.55
2018-11-27T04:09:29.236Z,4.55
2018-11-27T04:10:29.253Z,4.39
2018-11-27T04:11:29.242Z,4.36
2018-11-27T04:12:29.225Z,4.38
2018-11-27T04:13:29.296Z,4.38
2018-11-27T04:14:29.235Z,4.38
2018-11-27T04:15:29.339Z,4.35
2018-11-27T04:16:29.500Z,4.36
2018-11-27T04:17:29.372Z,4.38
2018-11-27T04:18:29.430Z,4.39
2018-11-27T04:19:29.334Z,4.36
2018-11-27T04:20:29.463Z,4.4
2018-11-27T04:21:29.381Z,4.38
2018-11-27T04:22:29.456Z,4.45
2018-11-27T04:23:29.467Z,4.39
2018-11-27T04:24:29.228Z,4.39
2018-11-27T04:25:29.247Z,4.35
2018-11-27T04:26:29.422Z,4.32
2018-11-27T04:27:29.250Z,4.36
2018-11-27T04:28:29.427Z,4.36
2018-11-27T04:29:29.345Z,4.38
2018-11-27T04:30:29.341Z,4.42
2018-11-27T04:31:29.381Z,4.48
2018-11-27T04:32:29.229Z,4.45
2018-11-27T04:33:29.290Z,4.45
2018-11-27T04:34:29.253Z,4.42
2018-11-27T04:35:29.207Z,4.4
2018-11-27T04:36:29.478Z,4.45
2018-11-27T04:37:29.246Z,4.51
2018-11-27T04:38:29.225Z,4.51
2018-11-27T04:39:29.369Z,4.43
2018-11-27T04:40:29.364Z,4.45
2018-11-27T04:41:29.226Z,4.46
2018-11-27T04:42:29.305Z,4.36
2018-11-27T04:43:29.327Z,4.29
2018-11-27T04:44:29.306Z,4.28
2018-11-27T04:45:29.275Z,4.3
2018-11-27T04:46:29.237Z,4.3
2018-11-27T04:47:29.204Z,4.29
2018-11-27T04:48:29.313Z,4.36
2018-11-27T04:49:29.340Z,4.36
2018-11-27T04:50:30.028Z,4.38
2018-11-27T04:51:29.232Z,4.38
2018-11-27T04:52:29.315Z,4.36
2018-11-27T04:53:29.201Z,4.38
2018-11-27T04:54:29.220Z,4.35
2018-11-27T04:55:29.198Z,4.35
2018-11-27T04:56:29.308Z,4.38
2018-11-27T04:57:29.407Z,4.36
2018-11-27T04:58:29.470Z,4.36
2018-11-27T04:59:29.379Z,4.35
2018-11-27T05:00:29.317Z,4.39
2018-11-27T05:01:29.356Z,4.36
2018-11-27T05:02:30.532Z,4.36
2018-11-27T05:03:29.163Z,4.38
2018-11-27T05:04:29.247Z,4.42
2018-11-27T05:05:29.301Z,4.43
2018-11-27T05:06:29.351Z,4.43
2018-11-27T05:07:29.179Z,4.33
2018-11-27T05:08:29.192Z,4.3
2018-11-27T05:09:29.234Z,4.32
2018-11-27T05:10:29.188Z,4.32
2018-11-27T05:11:29.213Z,4.3
2018-11-27T05:12:29.230Z,4.25
2018-11-27T05:13:29.501Z,4.22
2018-11-27T05:14:29.136Z,4.19
2018-11-27T05:15:29.225Z,4.19
2018-11-27T05:16:29.183Z,4.19
2018-11-27T05:17:29.346Z,4.17
2018-11-27T05:18:29.374Z,4.22
2018-11-27T05:19:29.292Z,4.21
2018-11-27T05:20:29.225Z,4.28
2018-11-27T05:21:29.232Z,4.24
2018-11-27T05:22:29.173Z,4.26
2018-11-27T05:23:29.308Z,4.21
2018-11-27T05:24:29.291Z,4.22
2018-11-27T05:25:29.138Z,4.24
2018-11-27T05:26:29.376Z,4.26
2018-11-27T05:27:29.517Z,4.28
2018-11-27T05:28:29.281Z,4.3
2018-11-27T05:29:29.207Z,4.26
2018-11-27T05:30:29.151Z,4.25
2018-11-27T05:31:29.147Z,4.22
2018-11-27T05:32:29.165Z,4.24
2018-11-27T05:33:29.149Z,4.19
2018-11-27T05:34:29.272Z,4.22
2018-11-27T05:35:29.149Z,4.24
2018-11-27T05:36:29.170Z,4.28
2018-11-27T05:37:29.212Z,4.22
2018-11-27T05:38:29.117Z,4.26
2018-11-27T05:39:29.170Z,4.29
2018-11-27T05:40:29.146Z,4.33
2018-11-27T05:41:29.147Z,4.36
2018-11-27T05:42:29.137Z,4.38
2018-11-27T05:43:29.136Z,4.42
2018-11-27T05:44:29.135Z,4.4
2018-11-27T05:45:29.107Z,4.43
2018-11-27T05:46:29.134Z,4.43
2018-11-27T05:47:29.167Z,4.45
2018-11-27T05:48:29.165Z,4.46
2018-11-27T05:49:29.498Z,4.48
2018-11-27T05:50:29.152Z,4.46
2018-11-27T05:51:29.117Z,4.51
2018-11-27T05:52:29.146Z,4.51
2018-11-27T05:53:29.177Z,4.53
2018-11-27T05:54:29.199Z,4.57
2018-11-27T05:55:29.154Z,4.57
2018-11-27T05:56:29.225Z,4.57
2018-11-27T05:57:29.279Z,4.51
2018-11-27T05:58:29.208Z,4.49
2018-11-27T05:59:29.231Z,4.51
2018-11-27T06:00:29.190Z,4.53
2018-11-27T06:01:29.173Z,4.52
2018-11-27T06:02:29.138Z,4.53
2018-11-27T06:03:29.550Z,4.59
2018-11-27T06:04:29.195Z,4.6
2018-11-27T06:05:29.206Z,4.59
2018-11-27T06:06:29.298Z,4.62
2018-11-27T06:07:29.176Z,4.66
2018-11-27T06:08:29.128Z,4.69
2018-11-27T06:09:29.261Z,4.72
2018-11-27T06:10:29.312Z,4.69
2018-11-27T06:11:29.625Z,4.72
2018-11-27T06:12:29.525Z,4.67
2018-11-27T06:13:29.165Z,4.65
2018-11-27T06:14:29.136Z,4.69
2018-11-27T06:15:29.140Z,4.69
2018-11-27T06:16:29.103Z,4.69
2018-11-27T06:17:29.320Z,4.74
2018-11-27T06:18:29.280Z,4.74
2018-11-27T06:19:29.212Z,4.81
2018-11-27T06:20:29.332Z,4.8
2018-11-27T06:21:29.416Z,4.83
2018-11-27T06:22:29.114Z,4.83
2018-11-27T06:23:29.352Z,4.83
2018-11-27T06:24:29.275Z,4.81
2018-11-27T06:25:29.124Z,4.76
2018-11-27T06:26:29.129Z,4.73
2018-11-27T06:27:29.159Z,4.76
2018-11-27T06:28:29.113Z,4.83
2018-11-27T06:29:29.305Z,4.84
2018-11-27T06:30:29.789Z,4.84
2018-11-27T06:31:29.192Z,4.87
2018-11-27T06:32:29.120Z,4.87
2018-11-27T06:33:29.234Z,4.88
2018-11-27T06:34:29.241Z,4.91
2018-11-27T06:35:29.144Z,4.91
2018-11-27T06:36:29.090Z,4.91
2018-11-27T06:37:29.180Z,4.94
2018-11-27T06:38:29.276Z,4.9
2018-11-27T06:39:29.223Z,4.87
2018-11-27T06:40:29.119Z,4.91
2018-11-27T06:41:29.289Z,4.91
2018-11-27T06:42:29.253Z,4.91
2018-11-27T06:43:29.188Z,4.93
2018-11-27T06:44:29.195Z,4.93
2018-11-27T06:45:29.224Z,4.93
2018-11-27T06:46:29.306Z,4.88
2018-11-27T06:47:29.215Z,4.81
2018-11-27T06:48:29.040Z,4.83
2018-11-27T06:49:29.244Z,4.84
2018-11-27T06:50:29.049Z,4.81
2018-11-27T06:51:29.406Z,4.83
2018-11-27T06:52:29.251Z,4.66
2018-11-27T06:53:29.292Z,4.72
2018-11-27T06:54:29.076Z,4.74
2018-11-27T06:55:29.885Z,4.74
2018-11-27T06:56:29.804Z,4.74
2018-11-27T06:57:29.251Z,4.79
2018-11-27T06:58:29.241Z,4.77
2018-11-27T06:59:29.192Z,4.8
2018-11-27T07:00:29.172Z,4.79
2018-11-27T07:01:29.073Z,4.81
2018-11-27T07:02:29.222Z,4.83
2018-11-27T07:03:29.192Z,4.83
2018-11-27T07:04:29.039Z,4.8
2018-11-27T07:05:29.033Z,4.83
2018-11-27T07:06:29.062Z,4.81
2018-11-27T07:07:29.032Z,4.81
2018-11-27T07:08:29.004Z,4.81
2018-11-27T07:09:29.027Z,4.83
2018-11-27T07:10:29.018Z,4.84
2018-11-27T07:11:29.092Z,4.84
2018-11-27T07:12:29.029Z,4.86
2018-11-27T07:13:29.346Z,4.88
2018-11-27T07:14:29.021Z,4.86
2018-11-27T07:15:29.114Z,4.79
2018-11-27T07:16:29.018Z,4.8
2018-11-27T07:17:29.219Z,4.83
2018-11-27T07:18:29.031Z,4.8
2018-11-27T07:19:29.011Z,4.87
2018-11-27T07:20:29.013Z,4.86
2018-11-27T07:21:29.012Z,4.84
2018-11-27T07:22:29.135Z,4.9
2018-11-27T07:23:29.049Z,4.87
2018-11-27T07:24:28.990Z,4.88
2018-11-27T07:25:29.024Z,4.9
2018-11-27T07:26:29.102Z,4.93
2018-11-27T07:27:29.353Z,4.93
2018-11-27T07:28:29.346Z,4.97
2018-11-27T07:29:29.114Z,4.95
2018-11-27T07:30:29.032Z,4.98
2018-11-27T07:31:29.398Z,4.97
2018-11-27T07:32:29.143Z,5
2018-11-27T07:33:29.219Z,4.98
2018-11-27T07:34:31.753Z,4.97
2018-11-27T07:35:29.034Z,4.97
2018-11-27T07:36:29.208Z,4.97
2018-11-27T07:37:29.356Z,4.98
2018-11-27T07:38:29.151Z,4.97
2018-11-27T07:39:29.166Z,4.95
2018-11-27T07:40:29.087Z,4.88
2018-11-27T07:41:29.143Z,4.87
2018-11-27T07:42:29.021Z,4.84
2018-11-27T07:43:29.219Z,4.84
2018-11-27T07:44:29.052Z,4.83
2018-11-27T07:45:28.967Z,4.87
2018-11-27T07:46:29.168Z,4.88
2018-11-27T07:47:29.095Z,4.9
2018-11-27T07:48:29.037Z,4.91
2018-11-27T07:49:29.234Z,4.91
2018-11-27T07:50:29.069Z,4.91
2018-11-27T07:51:29.040Z,4.94
2018-11-27T07:52:29.048Z,4.94
2018-11-27T07:53:29.263Z,4.95
2018-11-27T07:54:28.939Z,4.97
2018-11-27T07:55:29.068Z,4.97
2018-11-27T07:56:29.023Z,5.02
2018-11-27T07:57:28.998Z,4.94
2018-11-27T07:58:28.968Z,4.97
2018-11-27T07:59:29.065Z,5
2018-11-27T08:00:29.034Z,4.95
2018-11-27T08:01:29.118Z,4.95
2018-11-27T08:02:29.069Z,4.94
2018-11-27T08:03:29.260Z,4.98
2018-11-27T08:04:28.978Z,4.97
2018-11-27T08:05:29.176Z,4.97
2018-11-27T08:06:29.199Z,4.95
2018-11-27T08:07:28.967Z,4.94
2018-11-27T08:08:29.165Z,4.93
2018-11-27T08:09:29.161Z,4.94
2018-11-27T08:10:29.141Z,4.93
2018-11-27T08:11:29.079Z,4.93
2018-11-27T08:12:29.392Z,4.87
2018-11-27T08:13:29.013Z,4.9
2018-11-27T08:14:28.964Z,4.9
2018-11-27T08:15:28.964Z,4.88
2018-11-27T08:16:29.091Z,4.93
2018-11-27T08:17:29.117Z,4.9
2018-11-27T08:18:29.033Z,4.8
2018-11-27T08:19:28.979Z,4.79
2018-11-27T08:20:29.083Z,4.83
2018-11-27T08:21:28.968Z,4.81
2018-11-27T08:22:28.902Z,4.81
2018-11-27T08:23:28.946Z,4.79
2018-11-27T08:24:29.038Z,4.79
2018-11-27T08:25:29.304Z,4.8
2018-11-27T08:26:29.051Z,4.7
2018-11-27T08:27:28.910Z,4.76
2018-11-27T08:28:29.089Z,4.76
2018-11-27T08:29:29.008Z,4.79
2018-11-27T08:30:29.447Z,4.8
2018-11-27T08:31:28.910Z,4.76
2018-11-27T08:32:29.153Z,4.76
2018-11-27T08:33:29.158Z,4.79
2018-11-27T08:34:29.297Z,4.7
2018-11-27T08:35:28.988Z,4.72
2018-11-27T08:36:28.923Z,4.73
2018-11-27T08:37:28.913Z,4.69
2018-11-27T08:38:28.968Z,4.69
2018-11-27T08:39:29.119Z,4.69
2018-11-27T08:40:29.087Z,4.66
2018-11-27T08:41:28.976Z,4.67
2018-11-27T08:42:28.918Z,4.72
2018-11-27T08:43:28.996Z,4.66
2018-11-27T08:44:29.012Z,4.7
2018-11-27T08:45:28.908Z,4.7
2018-11-27T08:46:29.011Z,4.7
2018-11-27T08:47:29.047Z,4.73
2018-11-27T08:48:28.873Z,4.73
2018-11-27T08:49:29.322Z,4.74
2018-11-27T08:50:28.988Z,4.73
2018-11-27T08:51:28.961Z,4.74
2018-11-27T08:52:29.049Z,4.76
2018-11-27T08:53:28.987Z,4.76
2018-11-27T08:54:28.909Z,4.77
2018-11-27T08:55:29.002Z,4.77
2018-11-27T08:56:29.007Z,4.79
2018-11-27T08:57:28.911Z,4.79
2018-11-27T08:58:28.889Z,4.81
2018-11-27T08:59:28.863Z,4.8
2018-11-27T09:00:29.291Z,4.8
2018-11-27T09:01:28.835Z,4.81
2018-11-27T09:02:28.924Z,4.81
2018-11-27T09:03:29.265Z,4.83
2018-11-27T09:04:28.966Z,4.84
2018-11-27T09:05:29.047Z,4.8
2018-11-27T09:06:28.899Z,4.83
2018-11-27T09:07:29.102Z,4.83
2018-11-27T09:08:29.115Z,4.8
2018-11-27T09:09:29.226Z,4.73
2018-11-27T09:10:29.027Z,4.7
2018-11-27T09:11:28.888Z,4.73
2018-11-27T09:12:28.901Z,4.76
2018-11-27T09:13:28.844Z,4.74
2018-11-27T09:14:29.011Z,4.76
2018-11-27T09:15:29.050Z,4.8
2018-11-27T09:16:28.905Z,4.81
2018-11-27T09:17:29.016Z,4.84
2018-11-27T09:18:29.418Z,4.84
2018-11-27T09:19:29.013Z,4.86
2018-11-27T09:20:28.814Z,4.84
2018-11-27T09:21:29.225Z,4.88
2018-11-27T09:22:28.912Z,4.88
2018-11-27T09:23:29.077Z,4.87
2018-11-27T09:24:29.012Z,4.84
2018-11-27T09:25:28.969Z,4.84
2018-11-27T09:26:29.058Z,4.86
2018-11-27T09:27:28.932Z,4.87
2018-11-27T09:28:29.040Z,4.86
2018-11-27T09:29:29.039Z,4.87
2018-11-27T09:30:29.005Z,4.86
2018-11-27T09:31:29.045Z,4.84
2018-11-27T09:32:28.974Z,4.86
2018-11-27T09:33:29.003Z,4.87
2018-11-27T09:34:28.846Z,4.87
2018-11-27T09:35:29.427Z,4.91
2018-11-27T09:36:28.805Z,4.93
2018-11-27T09:37:29.088Z,4.93
2018-11-27T09:38:28.954Z,4.93
2018-11-27T09:39:29.150Z,4.93
2018-11-27T09:40:29.025Z,4.91
2018-11-27T09:41:28.858Z,4.9
2018-11-27T09:42:29.097Z,4.9
2018-11-27T09:43:28.915Z,4.91
2018-11-27T09:44:28.884Z,4.93
2018-11-27T09:45:28.887Z,4.93
2018-11-27T09:46:28.970Z,4.93
2018-11-27T09:47:28.815Z,4.91
2018-11-27T09:48:28.848Z,4.94
2018-11-27T09:49:28.982Z,4.91
2018-11-27T09:50:29.041Z,4.95
2018-11-27T09:51:28.870Z,4.95
2018-11-27T09:52:29.081Z,4.98
2018-11-27T09:53:28.788Z,4.98
2018-11-27T09:54:29.223Z,5.02
2018-11-27T09:55:28.956Z,5.01
2018-11-27T09:56:28.794Z,5.04
2018-11-27T09:57:28.837Z,5.02
2018-11-27T09:58:28.946Z,5.05
2018-11-27T09:59:29.046Z,5.08
2018-11-27T10:00:28.925Z,5.08
2018-11-27T10:01:28.778Z,5.05
2018-11-27T10:02:29.348Z,5.02
2018-11-27T10:03:28.762Z,5.05
2018-11-27T10:04:28.815Z,5.08
2018-11-27T10:05:29.173Z,5.07
2018-11-27T10:06:28.781Z,5.08
2018-11-27T10:07:28.799Z,5.07
2018-11-27T10:08:28.964Z,5.08
2018-11-27T10:09:29.039Z,5.08
2018-11-27T10:10:29.062Z,5.11
2018-11-27T10:11:28.845Z,5.12
2018-11-27T10:12:29.210Z,5.11
2018-11-27T10:13:28.778Z,5.14
2018-11-27T10:14:28.887Z,5.14
2018-11-27T10:15:28.887Z,5.14
2018-11-27T10:16:28.804Z,5.14
2018-11-27T10:17:29.006Z,5.14
2018-11-27T10:18:29.053Z,5.16
2018-11-27T10:19:29.596Z,5.18
2018-11-27T10:20:28.934Z,5.19
2018-11-27T10:21:28.767Z,5.21
2018-11-27T10:22:28.806Z,5.18
2018-11-27T10:23:28.907Z,5.19
2018-11-27T10:24:29.126Z,5.18
2018-11-27T10:25:28.773Z,5.19
2018-11-27T10:26:28.890Z,5.19
2018-11-27T10:27:28.743Z,5.19
2018-11-27T10:28:32.305Z,5.18
2018-11-27T10:29:28.761Z,5.22
2018-11-27T10:30:28.783Z,5.19
2018-11-27T10:31:28.763Z,5.18
2018-11-27T10:32:28.956Z,5.21
2018-11-27T10:33:28.854Z,5.22
2018-11-27T10:34:28.760Z,5.19
2018-11-27T10:35:28.732Z,5.21
2018-11-27T10:36:28.755Z,5.21
2018-11-27T10:37:28.734Z,5.19
2018-11-27T10:38:28.755Z,5.18
2018-11-27T10:39:28.847Z,5.16
2018-11-27T10:40:28.883Z,5.19
2018-11-27T10:41:28.762Z,5.21
2018-11-27T10:42:30.477Z,5.21
2018-11-27T10:43:28.755Z,5.23
2018-11-27T10:44:29.025Z,5.22
2018-11-27T10:45:28.859Z,5.19
2018-11-27T10:46:28.919Z,5.19
2018-11-27T10:47:28.806Z,5.18
2018-11-27T10:48:28.963Z,5.19
2018-11-27T10:49:28.788Z,5.21
2018-11-27T10:50:28.800Z,5.21
2018-11-27T10:51:28.804Z,5.23
2018-11-27T10:52:28.700Z,5.26
2018-11-27T10:53:28.711Z,5.26
2018-11-27T10:54:29.139Z,5.29
2018-11-27T10:55:28.822Z,5.29
2018-11-27T10:56:28.780Z,5.32
2018-11-27T10:57:28.924Z,5.35
2018-11-27T10:58:28.813Z,5.32
2018-11-27T10:59:28.940Z,5.3
2018-11-27T11:00:29.048Z,5.3
2018-11-27T11:01:28.712Z,5.32
2018-11-27T11:02:28.745Z,5.33
2018-11-27T11:03:28.683Z,5.32
2018-11-27T11:04:28.832Z,5.36
2018-11-27T11:05:28.863Z,5.35
2018-11-27T11:06:29.012Z,5.35
2018-11-27T11:07:28.690Z,5.38
2018-11-27T11:08:28.787Z,5.38
2018-11-27T11:09:29.090Z,5.4
2018-11-27T11:10:29.352Z,5.4
2018-11-27T11:11:28.781Z,5.39
2018-11-27T11:12:28.875Z,5.39
2018-11-27T11:13:28.746Z,5.4
2018-11-27T11:14:28.670Z,5.4
2018-11-27T11:15:28.800Z,5.42
2018-11-27T11:16:29.802Z,5.42
2018-11-27T11:17:28.686Z,5.45
2018-11-27T11:18:28.706Z,5.43
2018-11-27T11:19:28.731Z,5.45
2018-11-27T11:20:28.732Z,5.46
2018-11-27T11:21:28.850Z,5.49
2018-11-27T11:22:28.959Z,5.5
2018-11-27T11:23:28.728Z,5.5
2018-11-27T11:24:28.787Z,5.51
2018-11-27T11:25:28.672Z,5.53
2018-11-27T11:26:28.678Z,5.51
2018-11-27T11:27:28.716Z,5.54
2018-11-27T11:28:28.753Z,5.54
2018-11-27T11:29:28.839Z,5.54
2018-11-27T11:30:29.077Z,5.56
2018-11-27T11:31:28.803Z,5.57
2018-11-27T11:32:28.925Z,5.57
2018-11-27T11:33:28.796Z,5.57
2018-11-27T11:34:29.143Z,5.59
2018-11-27T11:35:28.638Z,5.59
2018-11-27T11:36:29.103Z,5.59
2018-11-27T11:37:28.733Z,5.59
2018-11-27T11:38:29.033Z,5.57
2018-11-27T11:39:28.699Z,5.56
2018-11-27T11:40:29.308Z,5.59
2018-11-27T11:41:31.567Z,5.56
2018-11-27T11:42:28.750Z,5.59
2018-11-27T11:43:28.790Z,5.6
2018-11-27T11:44:28.663Z,5.62
2018-11-27T11:45:28.709Z,5.56
2018-11-27T11:46:28.674Z,5.53
2018-11-27T11:47:28.660Z,5.53
2018-11-27T11:48:29.039Z,5.51
2018-11-27T11:49:28.963Z,5.45
2018-11-27T11:50:28.738Z,5.46
2018-11-27T11:51:29.052Z,5.46
2018-11-27T11:52:28.708Z,5.45
2018-11-27T11:53:28.650Z,5.46
2018-11-27T11:54:28.758Z,5.47
2018-11-27T11:55:28.719Z,5.5
2018-11-27T11:56:28.845Z,5.49
2018-11-27T11:57:28.677Z,5.53
2018-11-27T11:58:28.620Z,5.53
2018-11-27T11:59:29.041Z,5.56
2018-11-27T12:00:28.611Z,5.59
2018-11-27T12:01:28.609Z,5.53
2018-11-27T12:02:34.098Z,5.47
2018-11-27T12:03:28.642Z,5.46
2018-11-27T12:04:28.656Z,5.47
2018-11-27T12:05:28.649Z,5.49
2018-11-27T12:06:28.611Z,5.49
2018-11-27T12:07:28.714Z,5.5
2018-11-27T12:08:28.748Z,5.54
2018-11-27T12:09:28.626Z,5.54
2018-11-27T12:10:29.002Z,5.56
2018-11-27T12:11:28.616Z,5.57
2018-11-27T12:12:28.655Z,5.51
2018-11-27T12:13:28.692Z,5.51
2018-11-27T12:14:28.565Z,5.54
2018-11-27T12:15:28.602Z,5.53
2018-11-27T12:16:28.819Z,5.53
2018-11-27T12:17:28.603Z,5.56
2018-11-27T12:18:28.598Z,5.54
2018-11-27T12:19:28.634Z,5.57
2018-11-27T12:20:28.944Z,5.54
2018-11-27T12:21:28.626Z,5.56
2018-11-27T12:22:28.816Z,5.54
2018-11-27T12:23:28.659Z,5.57
2018-11-27T12:24:28.615Z,5.59
2018-11-27T12:25:28.590Z,5.5
2018-11-27T12:26:28.614Z,5.51
2018-11-27T12:27:29.303Z,5.49
2018-11-27T12:28:28.752Z,5.49
2018-11-27T12:29:28.744Z,5.49
2018-11-27T12:30:28.585Z,5.5
2018-11-27T12:31:28.699Z,5.5
2018-11-27T12:32:28.720Z,5.49
2018-11-27T12:33:28.589Z,5.46
2018-11-27T12:34:28.651Z,5.47
2018-11-27T12:35:28.678Z,5.49
2018-11-27T12:36:28.666Z,5.49
2018-11-27T12:37:28.634Z,5.46
2018-11-27T12:38:28.715Z,5.46
2018-11-27T12:39:28.569Z,5.47
2018-11-27T12:40:28.699Z,5.5
2018-11-27T12:41:28.734Z,5.5
2018-11-27T12:42:28.566Z,5.5
2018-11-27T12:43:28.656Z,5.5
2018-11-27T12:44:28.581Z,5.47
2018-11-27T12:45:28.667Z,5.46
2018-11-27T12:46:28.650Z,5.46
2018-11-27T12:47:28.621Z,5.45
2018-11-27T12:48:28.609Z,5.49
2018-11-27T12:49:28.885Z,5.45
2018-11-27T12:50:28.582Z,5.45
2018-11-27T12:51:28.609Z,5.46
2018-11-27T12:52:28.735Z,5.49
2018-11-27T12:53:28.554Z,5.47
2018-11-27T12:54:28.629Z,5.47
2018-11-27T12:55:28.655Z,5.43
2018-11-27T12:56:28.663Z,5.42
2018-11-27T12:57:28.536Z,5.39
2018-11-27T12:58:28.986Z,5.43
2018-11-27T12:59:28.637Z,5.42
2018-11-27T13:00:28.533Z,5.43
2018-11-27T13:01:28.656Z,5.42
2018-11-27T13:02:28.723Z,5.4
2018-11-27T13:03:28.570Z,5.38
2018-11-27T13:04:28.709Z,5.36
2018-11-27T13:05:28.866Z,5.36
2018-11-27T13:06:28.619Z,5.36
2018-11-27T13:07:28.615Z,5.38
2018-11-27T13:08:28.771Z,5.36
2018-11-27T13:09:28.571Z,5.36
2018-11-27T13:10:28.732Z,5.35
2018-11-27T13:11:28.561Z,5.35
2018-11-27T13:12:28.747Z,5.35
2018-11-27T13:13:28.591Z,5.35
2018-11-27T13:14:28.675Z,5.36
2018-11-27T13:15:28.605Z,5.35
2018-11-27T13:16:28.530Z,5.33
2018-11-27T13:17:28.677Z,5.35
2018-11-27T13:18:28.625Z,5.35
2018-11-27T13:19:28.808Z,5.36
2018-11-27T13:20:28.599Z,5.33
2018-11-27T13:21:28.567Z,5.32
2018-11-27T13:22:29.156Z,5.33